createdAt,value
2023-01-28T00:01:09.175Z,12.88
2023-01-28T00:03:12.177Z,13.20
2023-01-28T00:05:15.183Z,16.95
2023-01-28T00:07:20.374Z,24.13
2023-01-28T00:09:23.054Z,12.32
2023-01-28T00:11:25.696Z,13.57
2023-01-28T00:13:28.596Z,13.65
2023-01-28T00:15:31.236Z,10.88
2023-01-28T00:17:33.839Z,11.90
2023-01-28T00:19:36.518Z,12.95
2023-01-28T00:21:39.214Z,10.63
2023-01-28T00:23:45.405Z,12.57
2023-01-28T00:25:48.066Z,13.75
2023-01-28T00:27:51.162Z,11.27
2023-01-28T00:29:55.424Z,12.68
2023-01-28T00:31:58.157Z,12.90
2023-01-28T00:34:01.940Z,10.80
2023-01-28T00:36:06.634Z,14.65
2023-01-28T00:38:09.408Z,12.70
2023-01-28T00:40:14.544Z,13.15
2023-01-28T00:42:17.432Z,11.40
2023-01-28T00:44:20.809Z,12.95
2023-01-28T00:46:25.323Z,13.30
2023-01-28T00:48:28.089Z,10.45
2023-01-28T00:50:30.794Z,13.07
2023-01-28T00:52:33.566Z,11.63
2023-01-28T00:54:36.538Z,12.18
2023-01-28T00:56:40.627Z,12.32
2023-01-28T00:58:43.750Z,12.02
2023-01-28T01:00:47.561Z,12.45
2023-01-28T01:02:50.191Z,13.23
2023-01-28T01:05:01.717Z,12.70
2023-01-28T01:07:04.475Z,12.50
2023-01-28T01:09:09.586Z,11.38
2023-01-28T01:11:12.744Z,11.02
2023-01-28T01:13:16.780Z,14.10
2023-01-28T01:15:20.777Z,12.13
2023-01-28T01:17:23.507Z,12.35
2023-01-28T01:19:26.593Z,10.00
2023-01-28T01:21:30.705Z,10.77
2023-01-28T01:23:33.376Z,11.57
2023-01-28T01:25:36.028Z,11.65
2023-01-28T01:27:38.662Z,11.88
2023-01-28T01:29:42.839Z,11.07
2023-01-28T01:31:45.692Z,12.02
2023-01-28T01:33:50.114Z,11.93
2023-01-28T01:35:54.806Z,13.77
2023-01-28T01:37:57.571Z,11.32
2023-01-28T01:40:02.050Z,11.63
2023-01-28T01:42:10.903Z,10.65
2023-01-28T01:44:53.973Z,11.60
2023-01-28T01:46:56.763Z,11.65
2023-01-28T01:49:08.846Z,9.70
2023-01-28T01:51:16.167Z,11.32
2023-01-28T01:53:21.448Z,14.18
2023-01-28T01:55:28.809Z,12.52
2023-01-28T01:57:35.564Z,13.82
2023-01-28T01:59:40.582Z,9.85
2023-01-28T02:01:46.611Z,10.45
2023-01-28T02:03:56.375Z,10.88
2023-01-28T02:05:59.237Z,11.13
2023-01-28T02:08:16.499Z,10.55
2023-01-28T02:10:19.714Z,10.90
2023-01-28T02:12:25.440Z,10.40
2023-01-28T02:14:33.407Z,12.57
2023-01-28T02:16:36.231Z,12.10
2023-01-28T02:18:40.476Z,10.27
2023-01-28T02:21:02.923Z,12.60
2023-01-28T02:23:28.665Z,12.55
2023-01-28T02:25:47.532Z,11.55
2023-01-28T02:30:15.253Z,11.52
2023-01-28T02:32:23.362Z,10.88
2023-01-28T02:34:35.929Z,10.95
2023-01-28T02:36:46.658Z,10.68
2023-01-28T02:38:51.509Z,7.35
2023-01-28T02:41:06.541Z,11.30
2023-01-28T02:43:10.574Z,10.65
2023-01-28T02:45:21.039Z,9.00
2023-01-28T02:47:41.588Z,10.70
2023-01-28T02:49:47.991Z,11.48
2023-01-28T02:52:44.978Z,11.40
2023-01-28T02:55:00.531Z,10.70
2023-01-28T02:57:17.681Z,12.00
2023-01-28T02:59:37.687Z,10.52
2023-01-28T03:01:47.346Z,11.88
2023-01-28T03:04:00.190Z,12.95
2023-01-28T03:06:07.885Z,10.90
2023-01-28T03:08:26.390Z,10.60
2023-01-28T03:10:30.159Z,11.30
2023-01-28T03:12:51.231Z,9.18
2023-01-28T03:15:16.729Z,10.55
2023-01-28T03:17:41.629Z,11.27
2023-01-28T03:20:02.164Z,10.98
2023-01-28T03:22:23.377Z,10.85
2023-01-28T03:24:49.023Z,10.63
2023-01-28T03:27:15.295Z,10.38
2023-01-28T03:29:38.956Z,11.68
2023-01-28T03:32:01.479Z,11.52
2023-01-28T03:34:23.972Z,11.93
2023-01-28T03:36:44.889Z,13.05
2023-01-28T03:38:48.847Z,9.85
2023-01-28T03:40:53.466Z,11.98
2023-01-28T03:42:57.095Z,10.15
2023-01-28T03:45:01.612Z,11.32
2023-01-28T03:47:08.807Z,10.85
2023-01-28T03:49:11.466Z,12.80
2023-01-28T03:51:14.413Z,12.60
2023-01-28T03:53:17.566Z,12.25
2023-01-28T03:55:20.159Z,12.70
2023-01-28T03:57:24.519Z,13.02
2023-01-28T03:59:27.210Z,15.18
2023-01-28T04:01:29.897Z,13.10
2023-01-28T04:03:33.961Z,14.85
2023-01-28T04:05:36.660Z,13.90
2023-01-28T04:07:39.777Z,15.30
2023-01-28T04:09:43.026Z,13.93
2023-01-28T04:11:45.865Z,14.70
2023-01-28T04:13:50.032Z,15.20
2023-01-28T04:15:52.862Z,13.38
2023-01-28T04:17:55.524Z,14.73
2023-01-28T04:19:59.494Z,14.82
2023-01-28T04:22:02.155Z,13.95
2023-01-28T04:24:05.088Z,14.88
2023-01-28T04:26:08.335Z,14.02
2023-01-28T04:28:10.957Z,14.23
2023-01-28T04:30:13.850Z,13.07
2023-01-28T04:32:16.452Z,15.05
2023-01-28T04:34:20.437Z,16.35
2023-01-28T04:36:24.853Z,14.98
2023-01-28T04:38:27.527Z,14.77
2023-01-28T04:40:30.203Z,14.77
2023-01-28T04:42:32.956Z,14.27
2023-01-28T04:44:35.652Z,13.93
2023-01-28T04:46:38.519Z,15.30
2023-01-28T04:48:41.453Z,13.95
2023-01-28T04:50:44.654Z,13.23
2023-01-28T04:52:48.645Z,17.08
2023-01-28T04:54:51.510Z,16.20
2023-01-28T04:56:54.798Z,16.88
2023-01-28T04:58:57.365Z,16.70
2023-01-28T05:01:01.418Z,18.45
2023-01-28T05:03:04.268Z,15.35
2023-01-28T05:05:09.071Z,18.17
2023-01-28T05:07:11.774Z,19.38
2023-01-28T05:09:15.877Z,19.50
2023-01-28T05:11:18.477Z,17.70
2023-01-28T05:13:21.153Z,16.10
2023-01-28T05:15:24.129Z,19.48
2023-01-28T05:17:26.855Z,20.30
2023-01-28T05:19:29.509Z,19.10
2023-01-28T05:21:32.175Z,19.27
2023-01-28T05:23:34.821Z,18.85
2023-01-28T05:25:39.125Z,17.70
2023-01-28T05:27:41.849Z,19.13
2023-01-28T05:29:44.600Z,20.15
2023-01-28T05:31:49.056Z,17.55
2023-01-28T05:33:52.833Z,19.70
2023-01-28T05:35:55.478Z,17.88
2023-01-28T05:37:58.123Z,18.20
2023-01-28T05:40:00.775Z,17.80
2023-01-28T05:42:05.046Z,17.63
2023-01-28T05:44:07.719Z,19.27
2023-01-28T05:46:10.494Z,17.83
2023-01-28T05:48:13.162Z,17.67
2023-01-28T05:50:16.503Z,19.83
2023-01-28T05:52:19.384Z,17.58
2023-01-28T05:54:22.043Z,17.38
2023-01-28T05:56:24.723Z,17.17
2023-01-28T05:58:32.117Z,19.10
2023-01-28T06:00:34.894Z,20.90
2023-01-28T06:02:37.545Z,20.27
2023-01-28T06:04:40.217Z,18.92
2023-01-28T06:06:43.010Z,20.50
2023-01-28T06:08:45.722Z,20.20
2023-01-28T06:10:48.421Z,19.67
2023-01-28T06:12:51.186Z,20.00
2023-01-28T06:14:55.232Z,20.27
2023-01-28T06:16:57.892Z,19.38
2023-01-28T06:19:01.051Z,20.27
2023-01-28T06:21:03.804Z,18.42
2023-01-28T06:23:06.466Z,19.20
2023-01-28T06:25:09.886Z,20.05
2023-01-28T06:27:12.525Z,18.38
2023-01-28T06:29:15.169Z,18.17
2023-01-28T06:31:19.369Z,18.98
2023-01-28T06:33:24.091Z,19.55
2023-01-28T06:35:26.723Z,17.17
2023-01-28T06:37:29.346Z,19.15
2023-01-28T06:39:33.208Z,18.58
2023-01-28T06:41:35.810Z,19.33
2023-01-28T06:43:38.540Z,20.77
2023-01-28T06:45:41.246Z,18.25
2023-01-28T06:47:45.229Z,22.80
2023-01-28T06:49:47.868Z,21.15
2023-01-28T06:51:50.967Z,19.17
2023-01-28T06:53:53.636Z,18.98
2023-01-28T06:55:56.398Z,20.35
2023-01-28T06:57:59.174Z,20.63
2023-01-28T07:00:01.788Z,19.77
2023-01-28T07:02:04.500Z,19.83
2023-01-28T07:04:08.706Z,21.48
2023-01-28T07:06:11.392Z,21.20
2023-01-28T07:08:14.139Z,20.23
2023-01-28T07:10:17.685Z,19.08
2023-01-28T07:12:20.623Z,20.10
2023-01-28T07:14:23.575Z,23.98
2023-01-28T07:16:26.324Z,20.08
2023-01-28T07:18:28.968Z,18.63
2023-01-28T07:20:32.985Z,17.48
2023-01-28T07:22:35.745Z,18.60
2023-01-28T07:24:38.382Z,19.20
2023-01-28T07:26:40.981Z,23.42
2023-01-28T07:28:43.634Z,21.30
2023-01-28T07:30:46.356Z,21.08
2023-01-28T07:32:54.489Z,21.02
2023-01-28T07:34:57.186Z,19.42
2023-01-28T07:37:01.212Z,18.48
2023-01-28T07:39:04.192Z,17.95
2023-01-28T07:41:06.940Z,18.25
2023-01-28T07:43:09.851Z,17.60
2023-01-28T07:45:12.863Z,18.38
2023-01-28T07:47:15.595Z,19.42
2023-01-28T07:49:18.468Z,18.33
2023-01-28T07:51:21.080Z,18.95
2023-01-28T07:53:25.046Z,19.15
2023-01-28T07:55:30.972Z,18.95
2023-01-28T07:57:33.891Z,18.92
2023-01-28T07:59:36.558Z,19.70
2023-01-28T08:01:39.212Z,17.17
2023-01-28T08:03:41.873Z,23.20
2023-01-28T08:05:47.227Z,17.83
2023-01-28T08:07:50.201Z,18.13
2023-01-28T08:09:54.134Z,19.15
2023-01-28T08:11:56.849Z,22.15
2023-01-28T08:14:00.303Z,22.83
2023-01-28T08:16:03.049Z,18.80
2023-01-28T08:18:06.997Z,18.38
2023-01-28T08:20:11.164Z,18.80
2023-01-28T08:22:13.776Z,18.75
2023-01-28T08:24:17.006Z,20.85
2023-01-28T08:26:21.325Z,17.92
2023-01-28T08:28:24.138Z,22.65
2023-01-28T08:30:27.015Z,18.77
2023-01-28T08:32:30.485Z,19.15
2023-01-28T08:34:33.253Z,18.15
2023-01-28T08:36:36.023Z,18.60
2023-01-28T08:38:38.891Z,16.83
2023-01-28T08:40:42.012Z,19.20
2023-01-28T08:42:49.998Z,22.50
2023-01-28T08:44:52.875Z,17.45
2023-01-28T08:46:55.682Z,22.25
2023-01-28T08:48:58.478Z,19.77
2023-01-28T08:51:01.285Z,17.70
2023-01-28T08:53:06.706Z,19.08
2023-01-28T08:55:10.285Z,18.45
2023-01-28T08:57:13.006Z,19.15
2023-01-28T08:59:17.067Z,17.00
2023-01-28T09:01:19.735Z,18.70
2023-01-28T09:03:22.457Z,17.08
2023-01-28T09:05:25.195Z,18.95
2023-01-28T09:07:27.839Z,19.80
2023-01-28T09:09:31.551Z,19.38
2023-01-28T09:11:34.288Z,17.05
2023-01-28T09:13:36.932Z,17.52
2023-01-28T09:15:41.157Z,18.52
2023-01-28T09:17:43.942Z,20.85
2023-01-28T09:19:46.685Z,17.48
2023-01-28T09:21:49.281Z,19.83
2023-01-28T09:23:52.151Z,18.58
2023-01-28T09:26:01.215Z,19.42
2023-01-28T09:28:04.726Z,15.82
2023-01-28T09:30:08.665Z,17.52
2023-01-28T09:32:12.746Z,17.00
2023-01-28T09:34:15.552Z,17.05
2023-01-28T09:36:18.223Z,18.27
2023-01-28T09:38:20.925Z,17.60
2023-01-28T09:40:31.265Z,15.85
2023-01-28T09:42:52.075Z,19.48
2023-01-28T09:45:04.089Z,20.27
2023-01-28T09:47:17.855Z,16.10
2023-01-28T09:49:35.429Z,18.58
2023-01-28T09:51:43.282Z,17.50
2023-01-28T09:53:50.148Z,15.50
2023-01-28T09:55:57.474Z,20.48
2023-01-28T09:58:00.516Z,19.27
2023-01-28T10:00:03.170Z,17.85
2023-01-28T10:02:27.627Z,17.73
2023-01-28T10:04:48.486Z,18.20
2023-01-28T10:07:01.876Z,16.75
2023-01-28T10:09:24.870Z,16.45
2023-01-28T10:11:44.265Z,16.77
2023-01-28T10:13:54.268Z,18.25
2023-01-28T10:16:04.536Z,16.88
2023-01-28T10:18:17.726Z,17.92
2023-01-28T10:20:28.795Z,16.88
2023-01-28T10:22:35.861Z,19.63
2023-01-28T10:24:46.394Z,20.02
2023-01-28T10:26:49.032Z,20.67
2023-01-28T10:28:57.219Z,19.83
2023-01-28T10:30:59.830Z,20.23
2023-01-28T10:33:06.192Z,20.23
2023-01-28T10:35:10.752Z,18.98
2023-01-28T10:37:15.291Z,18.63
2023-01-28T10:39:20.970Z,20.60
2023-01-28T10:41:26.450Z,20.30
2023-01-28T10:43:33.236Z,18.48
2023-01-28T10:45:39.739Z,18.95
2023-01-28T10:47:47.386Z,20.80
2023-01-28T10:49:57.363Z,19.63
2023-01-28T10:52:12.149Z,21.00
2023-01-28T10:54:21.881Z,18.10
2023-01-28T10:56:26.502Z,19.10
2023-01-28T10:58:30.505Z,21.58
2023-01-28T11:00:36.940Z,19.38
2023-01-28T11:02:39.684Z,21.60
2023-01-28T11:04:42.390Z,23.58
2023-01-28T11:06:54.008Z,21.65
2023-01-28T11:09:00.499Z,23.20
2023-01-28T11:11:14.809Z,18.08
2023-01-28T11:13:18.741Z,25.50
2023-01-28T11:15:21.526Z,20.73
2023-01-28T11:17:26.210Z,22.23
2023-01-28T11:19:35.247Z,23.15
2023-01-28T11:21:38.764Z,20.42
2023-01-28T11:23:51.377Z,21.48
2023-01-28T11:26:06.157Z,22.15
2023-01-28T11:28:18.528Z,23.63
2023-01-28T11:30:24.493Z,21.90
2023-01-28T11:32:27.880Z,24.02
2023-01-28T11:34:34.210Z,24.33
2023-01-28T11:36:36.904Z,21.90
2023-01-28T11:38:49.827Z,20.08
2023-01-28T11:42:58.460Z,23.48
2023-01-28T11:45:01.138Z,24.70
2023-01-28T11:47:25.093Z,23.50
2023-01-28T11:49:38.738Z,21.85
2023-01-28T11:51:45.548Z,20.30
2023-01-28T11:53:58.655Z,20.27
2023-01-28T11:56:15.185Z,19.23
2023-01-28T11:58:26.490Z,18.17
2023-01-28T12:00:39.219Z,20.70
2023-01-28T12:02:52.180Z,19.00
2023-01-28T12:05:16.557Z,22.00
2023-01-28T12:07:33.353Z,20.70
2023-01-28T12:09:46.762Z,23.02
2023-01-28T12:12:14.042Z,21.63
2023-01-28T12:14:31.471Z,17.23
2023-01-28T12:16:48.552Z,20.02
2023-01-28T12:19:29.971Z,21.70
2023-01-28T12:21:44.663Z,21.17
2023-01-28T12:24:05.664Z,19.90
2023-01-28T12:26:14.227Z,18.48
2023-01-28T12:28:30.495Z,22.15
2023-01-28T12:30:55.495Z,19.40
2023-01-28T12:33:16.652Z,15.68
2023-01-28T12:35:32.464Z,16.55
2023-01-28T12:37:51.520Z,18.33
2023-01-28T12:40:05.738Z,17.10
2023-01-28T12:42:14.507Z,18.90
2023-01-28T12:44:25.308Z,21.33
2023-01-28T12:46:42.328Z,19.00
2023-01-28T12:48:48.789Z,20.20
2023-01-28T12:50:56.995Z,23.25
2023-01-28T12:53:04.291Z,18.10
2023-01-28T12:55:16.406Z,17.83
2023-01-28T12:57:24.420Z,25.08
2023-01-28T12:59:31.577Z,23.25
2023-01-28T13:01:43.832Z,23.95
2023-01-28T13:03:54.404Z,25.55
2023-01-28T13:06:01.856Z,24.35
2023-01-28T13:08:09.531Z,25.10
2023-01-28T13:10:28.367Z,20.92
2023-01-28T13:14:35.126Z,24.70
2023-01-28T13:16:39.202Z,20.50
2023-01-28T13:18:46.614Z,20.27
2023-01-28T13:20:51.867Z,23.23
2023-01-28T13:23:01.747Z,21.98
2023-01-28T13:25:20.724Z,21.23
2023-01-28T13:27:25.751Z,20.50
2023-01-28T13:29:33.857Z,16.35
2023-01-28T13:31:43.534Z,16.48
2023-01-28T13:33:49.854Z,17.10
2023-01-28T13:35:56.482Z,17.98
2023-01-28T13:38:00.478Z,16.77
2023-01-28T13:40:09.799Z,18.17
2023-01-28T13:42:24.889Z,15.60
2023-01-28T13:44:30.505Z,15.43
2023-01-28T13:46:33.342Z,14.13
2023-01-28T13:48:43.834Z,20.13
2023-01-28T13:50:46.770Z,14.73
2023-01-28T13:52:56.457Z,13.52
2023-01-28T13:55:06.362Z,15.02
2023-01-28T13:57:27.944Z,16.20
2023-01-28T13:59:51.021Z,16.42
2023-01-28T14:02:11.775Z,17.40
2023-01-28T14:04:40.392Z,12.88
2023-01-28T14:07:11.653Z,16.48
2023-01-28T14:09:35.601Z,15.32
2023-01-28T14:12:04.592Z,18.30
2023-01-28T14:14:26.026Z,17.67
2023-01-28T14:16:39.102Z,17.92
2023-01-28T14:18:44.725Z,16.17
2023-01-28T14:20:49.060Z,15.02
2023-01-28T14:22:53.112Z,16.15
2023-01-28T14:24:57.417Z,14.30
2023-01-28T14:27:07.997Z,15.77
2023-01-28T14:29:23.235Z,16.02
2023-01-28T14:31:28.817Z,14.27
2023-01-28T14:33:33.879Z,16.00
2023-01-28T14:35:40.091Z,15.25
2023-01-28T14:37:44.191Z,13.73
2023-01-28T14:39:49.976Z,15.18
2023-01-28T14:41:54.366Z,16.00
2023-01-28T14:43:58.118Z,12.68
2023-01-28T14:46:23.522Z,13.77
2023-01-28T14:48:30.685Z,11.90
2023-01-28T14:50:49.160Z,13.10
2023-01-28T14:53:20.181Z,13.35
2023-01-28T14:55:35.318Z,15.63
2023-01-28T14:57:46.910Z,14.98
2023-01-28T14:59:53.896Z,13.73
2023-01-28T15:04:00.108Z,13.43
2023-01-28T15:06:04.100Z,17.70
2023-01-28T15:08:08.342Z,12.93
2023-01-28T15:10:17.988Z,11.93
2023-01-28T15:12:20.869Z,14.45
2023-01-28T15:14:28.583Z,12.85
2023-01-28T15:16:31.509Z,15.48
2023-01-28T15:18:38.012Z,12.32
2023-01-28T15:20:45.799Z,11.77
2023-01-28T15:22:49.032Z,11.40
2023-01-28T15:24:53.710Z,12.02
2023-01-28T15:26:56.400Z,14.80
2023-01-28T15:29:00.272Z,14.57
2023-01-28T15:31:03.088Z,12.15
2023-01-28T15:33:12.417Z,14.05
2023-01-28T15:35:15.166Z,12.75
2023-01-28T15:37:19.972Z,11.20
2023-01-28T15:39:24.095Z,11.80
2023-01-28T15:41:33.381Z,13.02
2023-01-28T15:43:38.593Z,11.05
2023-01-28T15:45:48.000Z,12.43
2023-01-28T15:47:52.015Z,10.82
2023-01-28T15:49:56.566Z,11.60
2023-01-28T15:51:59.694Z,11.20
2023-01-28T15:54:06.491Z,10.70
2023-01-28T15:56:10.896Z,11.98
2023-01-28T15:58:27.912Z,13.40
2023-01-28T16:00:31.588Z,12.82
2023-01-28T16:02:34.743Z,13.30
2023-01-28T16:04:37.370Z,12.65
2023-01-28T16:06:42.787Z,11.75
2023-01-28T16:08:54.210Z,13.50
2023-01-28T16:10:57.880Z,10.30
2023-01-28T16:13:06.224Z,12.18
2023-01-28T16:15:20.758Z,12.65
2023-01-28T16:17:26.894Z,10.45
2023-01-28T16:19:38.634Z,11.65
2023-01-28T16:21:46.429Z,11.00
2023-01-28T16:23:53.015Z,11.45
2023-01-28T16:26:03.504Z,12.40
2023-01-28T16:28:17.898Z,11.98
2023-01-28T16:30:22.404Z,11.15
2023-01-28T16:32:36.077Z,12.35
2023-01-28T16:34:42.316Z,13.75
2023-01-28T16:36:44.947Z,11.10
2023-01-28T16:38:47.653Z,13.55
2023-01-28T16:40:50.515Z,9.70
2023-01-28T16:42:55.324Z,11.57
2023-01-28T16:44:57.988Z,12.10
2023-01-28T16:47:03.058Z,11.20
2023-01-28T16:49:05.940Z,10.07
2023-01-28T16:51:16.042Z,9.43
2023-01-28T16:53:22.019Z,10.95
2023-01-28T16:55:24.865Z,10.30
2023-01-28T16:57:27.477Z,13.25
2023-01-28T16:59:30.149Z,10.27
2023-01-28T17:01:32.831Z,9.15
2023-01-28T17:03:36.870Z,12.35
2023-01-28T17:05:39.532Z,12.30
2023-01-28T17:07:42.449Z,10.13
2023-01-28T17:09:45.220Z,11.68
2023-01-28T17:11:47.853Z,9.23
2023-01-28T17:13:50.498Z,11.68
2023-01-28T17:15:54.599Z,10.65
2023-01-28T17:17:57.332Z,13.23
2023-01-28T17:20:01.364Z,11.65
2023-01-28T17:22:03.949Z,11.50
2023-01-28T17:24:07.286Z,10.93
2023-01-28T17:26:12.153Z,13.80
2023-01-28T17:28:14.821Z,14.43
2023-01-28T17:30:19.974Z,9.95
2023-01-28T17:32:22.685Z,10.63
2023-01-28T17:34:25.367Z,11.27
2023-01-28T17:36:29.816Z,9.93
2023-01-28T17:38:32.601Z,12.50
2023-01-28T17:40:35.226Z,11.93
2023-01-28T17:42:37.848Z,11.32
2023-01-28T17:44:40.494Z,12.30
2023-01-28T17:46:43.113Z,10.73
2023-01-28T17:48:45.996Z,9.07
2023-01-28T17:50:48.671Z,12.80
2023-01-28T17:52:56.573Z,13.00
2023-01-28T17:54:59.216Z,10.68
2023-01-28T17:57:01.823Z,10.63
2023-01-28T17:59:06.422Z,12.05
2023-01-28T18:01:10.062Z,11.60
2023-01-28T18:03:14.049Z,13.73
2023-01-28T18:05:17.220Z,11.40
2023-01-28T18:07:20.217Z,10.35
2023-01-28T18:09:24.195Z,12.48
2023-01-28T18:11:28.043Z,11.43
2023-01-28T18:13:30.735Z,11.60
2023-01-28T18:15:33.310Z,12.50
2023-01-28T18:17:36.001Z,10.85
2023-01-28T18:19:38.675Z,12.35
2023-01-28T18:21:52.545Z,12.55
2023-01-28T18:23:56.107Z,12.45
2023-01-28T18:26:01.389Z,11.45
2023-01-28T18:28:05.718Z,12.52
2023-01-28T18:30:09.772Z,10.85
2023-01-28T18:32:12.425Z,9.90
2023-01-28T18:34:15.194Z,10.80
2023-01-28T18:36:18.166Z,11.98
2023-01-28T18:38:20.820Z,12.48
2023-01-28T18:40:23.504Z,13.23
2023-01-28T18:42:27.634Z,12.57
2023-01-28T18:44:31.248Z,12.18
2023-01-28T18:46:34.047Z,11.55
2023-01-28T18:48:36.679Z,12.57
2023-01-28T18:50:39.307Z,13.77
2023-01-28T18:52:41.993Z,12.30
2023-01-28T18:54:44.662Z,13.07
2023-01-28T18:56:49.041Z,12.25
2023-01-28T18:58:57.494Z,16.33
2023-01-28T19:01:03.935Z,12.13
2023-01-28T19:03:07.148Z,14.00
2023-01-28T19:05:10.914Z,17.50
2023-01-28T19:07:13.608Z,13.98
2023-01-28T19:09:18.102Z,13.00
2023-01-28T19:11:20.792Z,14.40
2023-01-28T19:13:23.468Z,12.32
2023-01-28T19:15:27.601Z,15.30
2023-01-28T19:17:30.268Z,14.80
2023-01-28T19:19:32.879Z,13.40
2023-01-28T19:21:35.615Z,14.13
2023-01-28T19:23:49.576Z,16.73
2023-01-28T19:25:52.962Z,14.65
2023-01-28T19:27:55.650Z,19.45
2023-01-28T19:29:58.290Z,14.18
2023-01-28T19:32:04.482Z,15.77
2023-01-28T19:34:08.596Z,16.15
2023-01-28T19:36:11.821Z,15.25
2023-01-28T19:38:14.523Z,17.45
2023-01-28T19:40:18.052Z,16.70
2023-01-28T19:42:20.730Z,14.85
2023-01-28T19:44:23.549Z,16.70
2023-01-28T19:46:26.871Z,16.73
2023-01-28T19:48:31.495Z,13.93
2023-01-28T19:50:34.195Z,15.35
2023-01-28T19:52:36.852Z,16.13
2023-01-28T19:54:39.504Z,16.30
2023-01-28T19:56:42.224Z,13.95
2023-01-28T19:58:45.491Z,17.02
2023-01-28T20:00:48.222Z,13.52
2023-01-28T20:02:52.079Z,12.60
2023-01-28T20:05:00.856Z,13.60
2023-01-28T20:07:03.935Z,13.40
2023-01-28T20:09:09.003Z,16.50
2023-01-28T20:11:13.072Z,14.50
2023-01-28T20:13:15.666Z,14.65
2023-01-28T20:15:18.673Z,13.32
2023-01-28T20:17:21.705Z,13.52
2023-01-28T20:19:24.413Z,12.40
2023-01-28T20:21:29.537Z,13.40
2023-01-28T20:23:32.778Z,12.30
2023-01-28T20:25:35.556Z,13.50
2023-01-28T20:27:38.211Z,13.85
2023-01-28T20:29:40.999Z,15.95
2023-01-28T20:31:43.898Z,13.38
2023-01-28T20:33:47.130Z,15.13
2023-01-28T20:35:49.896Z,13.70
2023-01-28T20:37:53.887Z,13.02
2023-01-28T20:39:56.561Z,12.77
2023-01-28T20:41:59.206Z,16.25
2023-01-28T20:44:01.950Z,17.95
2023-01-28T20:46:06.009Z,16.95
2023-01-28T20:48:08.718Z,13.82
2023-01-28T20:50:12.150Z,14.23
2023-01-28T20:52:14.773Z,15.60
2023-01-28T20:54:19.264Z,17.17
2023-01-28T20:56:24.180Z,16.83
2023-01-28T20:58:27.109Z,15.63
2023-01-28T21:00:29.719Z,15.13
2023-01-28T21:02:35.295Z,13.50
2023-01-28T21:04:38.011Z,14.27
2023-01-28T21:06:40.844Z,18.67
2023-01-28T21:08:44.514Z,14.80
2023-01-28T21:10:48.811Z,14.45
2023-01-28T21:12:51.382Z,17.33
2023-01-28T21:14:54.015Z,13.50
2023-01-28T21:16:56.660Z,15.90
2023-01-28T21:18:59.301Z,16.27
2023-01-28T21:21:07.489Z,14.90
2023-01-28T21:23:14.615Z,14.73
2023-01-28T21:25:17.515Z,13.18
2023-01-28T21:27:21.449Z,12.52
2023-01-28T21:29:24.095Z,17.80
2023-01-28T21:31:27.715Z,15.93
2023-01-28T21:33:30.421Z,17.42
2023-01-28T21:35:36.583Z,15.10
2023-01-28T21:37:39.541Z,14.82
2023-01-28T21:39:42.116Z,16.67
2023-01-28T21:41:44.687Z,15.18
2023-01-28T21:43:52.192Z,14.25
2023-01-28T21:45:58.621Z,16.55
2023-01-28T21:48:01.267Z,15.88
2023-01-28T21:50:05.251Z,14.25
2023-01-28T21:52:08.157Z,14.77
2023-01-28T21:54:14.126Z,14.25
2023-01-28T21:56:16.754Z,13.50
2023-01-28T21:58:37.159Z,14.88
2023-01-28T22:00:41.265Z,16.88
2023-01-28T22:02:43.989Z,12.40
2023-01-28T22:04:49.608Z,15.30
2023-01-28T22:06:54.526Z,12.93
2023-01-28T22:08:57.320Z,14.90
2023-01-28T22:11:03.169Z,12.38
2023-01-28T22:13:05.798Z,13.55
2023-01-28T22:15:09.484Z,17.30
2023-01-28T22:17:13.518Z,13.25
2023-01-28T22:19:16.616Z,12.60
2023-01-28T22:21:19.218Z,13.73
2023-01-28T22:23:21.834Z,12.30
2023-01-28T22:25:24.563Z,13.20
2023-01-28T22:27:28.765Z,12.95
2023-01-28T22:29:31.720Z,13.55
2023-01-28T22:31:34.832Z,14.70
2023-01-28T22:33:39.818Z,15.20
2023-01-28T22:35:42.540Z,14.52
2023-01-28T22:37:45.129Z,12.93
2023-01-28T22:39:47.785Z,11.68
2023-01-28T22:41:50.440Z,13.48
2023-01-28T22:43:53.778Z,13.50
2023-01-28T22:45:59.445Z,13.27
2023-01-28T22:48:02.051Z,12.43
2023-01-28T22:50:07.220Z,12.60
2023-01-28T22:52:09.835Z,13.75
2023-01-28T22:54:14.777Z,14.82
2023-01-28T22:56:18.901Z,13.43
2023-01-28T22:58:21.601Z,12.93
2023-01-28T23:00:28.812Z,12.57
2023-01-28T23:02:31.504Z,11.85
2023-01-28T23:04:34.213Z,10.65
2023-01-28T23:06:38.276Z,12.68
2023-01-28T23:08:41.263Z,13.98
2023-01-28T23:10:50.125Z,12.90
2023-01-28T23:12:54.515Z,13.00
2023-01-28T23:15:15.183Z,13.65
2023-01-28T23:17:35.583Z,15.00
2023-01-28T23:19:55.953Z,13.98
2023-01-28T23:22:17.508Z,13.05
2023-01-28T23:24:22.585Z,13.13
2023-01-28T23:26:25.388Z,13.77
2023-01-28T23:28:28.512Z,13.55
2023-01-28T23:30:31.294Z,13.32
2023-01-28T23:32:34.159Z,15.50
2023-01-28T23:34:38.866Z,11.40
2023-01-28T23:36:41.551Z,12.70
2023-01-28T23:38:45.550Z,11.70
2023-01-28T23:40:48.217Z,11.95
2023-01-28T23:42:51.664Z,10.70
2023-01-28T23:44:54.321Z,14.80
2023-01-28T23:46:57.036Z,12.02
2023-01-28T23:48:59.672Z,11.35
2023-01-28T23:51:02.311Z,10.93
2023-01-28T23:53:12.936Z,11.52
2023-01-28T23:55:17.007Z,13.23
2023-01-28T23:57:19.696Z,12.07
2023-01-28T23:59:22.387Z,12.07
